• Join FlightAware (Why Join?)
  • Login
  • US Flag 
09:50PM EDT


 

Airport Tracker/Info


-or-


 

Live Flight TrackerFlight Track Log ✈ CHQ6080 ✈ 05-Aug-2013 ✈ KJFK - KSYR

Flight Track Log - Related Links

Times and Time Zones

All times are in EDT time to prevent confusion due to time zone crossing. See the CHQ6080 flight status page for this flight to view local times or setup timezone preferences in your user account.

Time Position Orientation Groundspeed Altitude Reporting Facility
EDT Latitude Longitude Course Direction KTS MPH feet Rate Location/Type
06:03PM 40.6000 -73.8000 315° West 194 223 2,100  Level New York TRACON
06:04PM 40.5333 -73.8000 180° South 257 296 4,300 2,340 Climbing New York TRACON
06:05PM 40.8919 -74.1337 315° West  Level FlightAware Approximate
06:05PM 40.5500 -73.7333 72° East 268 308 6,800  Level New York TRACON
06:06PM 40.9607 -74.2231 316° Northwest  Level FlightAware Approximate
06:06PM 40.6167 -73.6833 30° Northeast 273 314 9,600  Level New York TRACON
06:07PM 41.0298 -74.3121 316° Northwest  Level FlightAware Approximate
06:07PM 40.6833 -73.6333 30° Northeast 294 338 11,400  Level New York TRACON
06:07PM 40.7667 -73.5833 24° Northeast 327 376 12,900 1,800 Climbing New York TRACON
06:08PM 41.1017 -74.3967 315° West  Level FlightAware Approximate
06:09PM 40.8667 -73.5833 360° North 327 376 15,000  Level New York TRACON
06:09PM 40.9333 -73.6333 330° Northwest 331 381 16,500 660 Climbing New York TRACON
06:11PM 41.0150 -73.8594 296° West 368 423 17,000 120 Climbing New York Center
06:12PM 41.0514 -73.9739 293° West 379 436 17,000  Level New York Center
06:13PM 41.0933 -74.1161 291° West 379 436 17,000  Level New York Center
06:14PM 41.1292 -74.2447 290° West 374 430 17,000 360 Level New York Center
06:15PM 41.1692 -74.3736 292° West 374 430 17,800 480 Climbing New York Center
06:16PM 41.2067 -74.5050 291° West 374 430 18,000 60 Climbing New York Center
06:17PM 41.2569 -74.6267 299° West 374 430 18,000  Level New York Center
06:18PM 41.3261 -74.7408 309° West 390 449 18,000  Level New York Center
06:19PM 41.3931 -74.8500 309° West 390 449 18,000  Level New York Center
06:20PM 41.4622 -74.9594 310° West 390 449 18,000  Level New York Center
06:21PM 41.5231 -75.0603 309° West 385 443 18,000  Level New York Center
06:22PM 41.5956 -75.1842 308° West 385 443 18,000  Level New York Center
06:23PM 41.6642 -75.2969 309° West 385 443 18,000  Level New York Center
06:24PM 41.7308 -75.4097 308° West 385 443 18,000  Level New York Center
06:25PM 41.7911 -75.5114 309° West 385 443 18,000  Level New York Center
06:26PM 41.8575 -75.6247 308° West 385 443 18,000 -300 Level New York Center
06:27PM 41.9217 -75.7353 308° West 380 437 17,500 -780 Descending New York Center
06:28PM 41.9875 -75.8492 308° West 380 437 16,500 -1,140 Descending New York Center
06:29PM 42.0556 -75.9633 309° West 380 437 15,300 -1,140 Descending New York Center
06:30PM 42.1194 -76.0717 309° West 380 437 14,300 -1,020 Descending New York Center
06:31PM 42.2064 -76.1292 334° Northwest 354 407 13,300 -1,260 Descending New York Center
06:32PM 42.3067 -76.1206 North 338 389 11,900 -1,200 Descending New York Center
06:33PM 42.3986 -76.1111 North 349 402 11,000 -540 Descending New York Center
06:34PM 42.4706 -76.0997 North 344 396 11,000  Level Boston Center
06:35PM 42.5814 -76.0892 North 341 392 11,000 -120 Level Boston Center
06:36PM 42.6506 -76.0792 North 298 343 10,800 -900 Descending Boston Center
06:37PM 42.7300 -76.0725 North 274 315 9,300 -1,560 Descending Boston Center
06:38PM 42.8178 -76.0636 North 267 307 7,600 -1,560 Descending Boston Center
06:39PM 42.8889 -76.0619 North 260 299 6,100 -1,500 Descending Boston Center
06:40PM 42.9603 -76.0436 11° North 258 297 4,600 -1,320 Descending Boston Center
06:41PM 43.0175 -76.0186 18° North 229 264 3,600 -1,200 Descending Boston Center
06:42PM 43.0742 -76.0047 10° North 198 228 2,300 -1,140 Descending Boston Center
06:43PM 43.1086 -76.0381 325° Northwest 129 148 1,400 -900 Descending Boston Center